sensor_id;sensor_type;location;lat;lon;timestamp;temperature;humidity
10848;DHT22;5477;48.806;9.154;2022-10-13T00:01:21;11.90;99.90
10848;DHT22;5477;48.806;9.154;2022-10-13T00:03:50;11.90;99.90
10848;DHT22;5477;48.806;9.154;2022-10-13T00:06:24;11.80;99.90
10848;DHT22;5477;48.806;9.154;2022-10-13T00:08:54;11.80;99.90
10848;DHT22;5477;48.806;9.154;2022-10-13T00:11:24;11.90;99.90
10848;DHT22;5477;48.806;9.154;2022-10-13T00:13:54;12.00;99.90
10848;DHT22;5477;48.806;9.154;2022-10-13T00:16:23;12.00;99.90
10848;DHT22;5477;48.806;9.154;2022-10-13T00:18:51;12.00;99.90
10848;DHT22;5477;48.806;9.154;2022-10-13T00:21:21;11.90;99.90
10848;DHT22;5477;48.806;9.154;2022-10-13T00:23:50;11.90;99.90
10848;DHT22;5477;48.806;9.154;2022-10-13T00:26:21;11.90;99.90
10848;DHT22;5477;48.806;9.154;2022-10-13T00:28:50;11.90;99.90
10848;DHT22;5477;48.806;9.154;2022-10-13T00:31:21;11.90;99.90
10848;DHT22;5477;48.806;9.154;2022-10-13T00:33:49;12.00;99.90
10848;DHT22;5477;48.806;9.154;2022-10-13T00:36:20;12.00;99.90
10848;DHT22;5477;48.806;9.154;2022-10-13T00:38:48;12.00;99.90
10848;DHT22;5477;48.806;9.154;2022-10-13T00:41:16;12.00;99.90
10848;DHT22;5477;48.806;9.154;2022-10-13T00:43:59;11.90;99.90
10848;DHT22;5477;48.806;9.154;2022-10-13T00:46:29;11.90;99.90
10848;DHT22;5477;48.806;9.154;2022-10-13T00:49:00;11.90;99.90
10848;DHT22;5477;48.806;9.154;2022-10-13T00:51:31;11.90;99.90
10848;DHT22;5477;48.806;9.154;2022-10-13T00:54:00;11.90;99.90
10848;DHT22;5477;48.806;9.154;2022-10-13T00:56:30;11.90;99.90
10848;DHT22;5477;48.806;9.154;2022-10-13T00:59:00;11.90;99.90
10848;DHT22;5477;48.806;9.154;2022-10-13T01:01:30;11.90;99.90
10848;DHT22;5477;48.806;9.154;2022-10-13T01:03:58;11.90;99.90
10848;DHT22;5477;48.806;9.154;2022-10-13T01:06:26;11.90;99.90
10848;DHT22;5477;48.806;9.154;2022-10-13T01:08:54;11.90;99.90
10848;DHT22;5477;48.806;9.154;2022-10-13T01:11:35;11.90;99.90
10848;DHT22;5477;48.806;9.154;2022-10-13T01:14:16;11.80;99.90
10848;DHT22;5477;48.806;9.154;2022-10-13T01:16:51;11.80;99.90
10848;DHT22;5477;48.806;9.154;2022-10-13T01:19:43;11.90;99.90
10848;DHT22;5477;48.806;9.154;2022-10-13T01:22:30;11.90;99.90
10848;DHT22;5477;48.806;9.154;2022-10-13T01:25:10;11.90;99.90
10848;DHT22;5477;48.806;9.154;2022-10-13T01:27:55;12.00;99.90
10848;DHT22;5477;48.806;9.154;2022-10-13T01:30:31;11.90;99.90
10848;DHT22;5477;48.806;9.154;2022-10-13T01:33:16;11.90;99.90
10848;DHT22;5477;48.806;9.154;2022-10-13T01:35:54;11.90;99.90
10848;DHT22;5477;48.806;9.154;2022-10-13T01:38:28;11.90;99.90
10848;DHT22;5477;48.806;9.154;2022-10-13T01:41:06;11.90;99.90
10848;DHT22;5477;48.806;9.154;2022-10-13T01:43:41;11.90;99.90
10848;DHT22;5477;48.806;9.154;2022-10-13T01:46:15;11.90;99.90
10848;DHT22;5477;48.806;9.154;2022-10-13T01:48:44;11.90;99.90
10848;DHT22;5477;48.806;9.154;2022-10-13T01:51:15;11.90;99.90
10848;DHT22;5477;48.806;9.154;2022-10-13T01:53:46;11.90;99.90
10848;DHT22;5477;48.806;9.154;2022-10-13T01:56:15;11.80;99.90
10848;DHT22;5477;48.806;9.154;2022-10-13T01:58:43;11.60;99.90
10848;DHT22;5477;48.806;9.154;2022-10-13T02:01:28;11.50;99.90
10848;DHT22;5477;48.806;9.154;2022-10-13T02:04:11;11.40;99.90
10848;DHT22;5477;48.806;9.154;2022-10-13T02:06:45;11.30;99.90
10848;DHT22;5477;48.806;9.154;2022-10-13T02:09:20;11.20;99.90
10848;DHT22;5477;48.806;9.154;2022-10-13T02:11:55;11.30;99.90
10848;DHT22;5477;48.806;9.154;2022-10-13T02:14:30;11.30;99.90
10848;DHT22;5477;48.806;9.154;2022-10-13T02:17:03;11.20;99.90
10848;DHT22;5477;48.806;9.154;2022-10-13T02:19:35;11.20;99.90
10848;DHT22;5477;48.806;9.154;2022-10-13T02:22:04;11.30;99.90
10848;DHT22;5477;48.806;9.154;2022-10-13T02:24:32;11.30;99.90
10848;DHT22;5477;48.806;9.154;2022-10-13T02:27:02;11.40;99.90
10848;DHT22;5477;48.806;9.154;2022-10-13T02:29:31;11.40;99.90
10848;DHT22;5477;48.806;9.154;2022-10-13T02:32:01;11.50;99.90
10848;DHT22;5477;48.806;9.154;2022-10-13T02:34:29;11.50;99.90
10848;DHT22;5477;48.806;9.154;2022-10-13T02:36:57;11.60;99.90
10848;DHT22;5477;48.806;9.154;2022-10-13T02:39:25;11.60;99.90
10848;DHT22;5477;48.806;9.154;2022-10-13T02:41:52;11.60;99.90
10848;DHT22;5477;48.806;9.154;2022-10-13T02:44:21;11.70;99.90
10848;DHT22;5477;48.806;9.154;2022-10-13T02:46:50;11.70;99.90
10848;DHT22;5477;48.806;9.154;2022-10-13T02:49:19;11.70;99.90
10848;DHT22;5477;48.806;9.154;2022-10-13T02:51:47;11.70;99.90
10848;DHT22;5477;48.806;9.154;2022-10-13T02:54:15;11.80;99.90
10848;DHT22;5477;48.806;9.154;2022-10-13T02:56:43;11.80;99.90
10848;DHT22;5477;48.806;9.154;2022-10-13T02:59:11;11.80;99.90
10848;DHT22;5477;48.806;9.154;2022-10-13T03:01:39;11.80;99.90
10848;DHT22;5477;48.806;9.154;2022-10-13T03:04:08;11.80;99.90
10848;DHT22;5477;48.806;9.154;2022-10-13T03:06:37;11.70;99.90
10848;DHT22;5477;48.806;9.154;2022-10-13T03:09:06;11.60;99.90
10848;DHT22;5477;48.806;9.154;2022-10-13T03:11:34;11.60;99.90
10848;DHT22;5477;48.806;9.154;2022-10-13T03:14:02;11.60;99.90
10848;DHT22;5477;48.806;9.154;2022-10-13T03:16:30;11.70;99.90
10848;DHT22;5477;48.806;9.154;2022-10-13T03:18:58;11.70;99.90
10848;DHT22;5477;48.806;9.154;2022-10-13T03:21:26;11.80;99.90
10848;DHT22;5477;48.806;9.154;2022-10-13T03:23:55;11.90;99.90
10848;DHT22;5477;48.806;9.154;2022-10-13T03:26:24;12.00;99.90
10848;DHT22;5477;48.806;9.154;2022-10-13T03:28:52;12.00;99.90
10848;DHT22;5477;48.806;9.154;2022-10-13T03:31:20;12.00;99.90
10848;DHT22;5477;48.806;9.154;2022-10-13T03:33:48;12.00;99.90
10848;DHT22;5477;48.806;9.154;2022-10-13T03:36:17;12.10;99.90
10848;DHT22;5477;48.806;9.154;2022-10-13T03:38:47;12.20;99.90
10848;DHT22;5477;48.806;9.154;2022-10-13T03:41:19;12.20;99.90
10848;DHT22;5477;48.806;9.154;2022-10-13T03:43:50;12.30;99.90
10848;DHT22;5477;48.806;9.154;2022-10-13T03:46:19;12.20;99.90
10848;DHT22;5477;48.806;9.154;2022-10-13T03:48:47;12.30;99.90
10848;DHT22;5477;48.806;9.154;2022-10-13T03:51:17;12.40;99.90
10848;DHT22;5477;48.806;9.154;2022-10-13T03:53:48;12.40;99.90
10848;DHT22;5477;48.806;9.154;2022-10-13T03:56:18;12.40;99.90
10848;DHT22;5477;48.806;9.154;2022-10-13T03:58:55;12.50;99.90
10848;DHT22;5477;48.806;9.154;2022-10-13T04:01:25;12.50;99.90
10848;DHT22;5477;48.806;9.154;2022-10-13T04:03:54;12.50;99.90
10848;DHT22;5477;48.806;9.154;2022-10-13T04:06:24;12.50;99.90
10848;DHT22;5477;48.806;9.154;2022-10-13T04:08:52;12.50;99.90
10848;DHT22;5477;48.806;9.154;2022-10-13T04:11:20;12.50;99.90
10848;DHT22;5477;48.806;9.154;2022-10-13T04:13:56;12.50;99.90
10848;DHT22;5477;48.806;9.154;2022-10-13T04:16:26;12.60;99.90
10848;DHT22;5477;48.806;9.154;2022-10-13T04:18:57;12.60;99.90
10848;DHT22;5477;48.806;9.154;2022-10-13T04:21:26;12.60;99.90
10848;DHT22;5477;48.806;9.154;2022-10-13T04:23:55;12.50;99.90
10848;DHT22;5477;48.806;9.154;2022-10-13T04:26:26;12.40;99.90
10848;DHT22;5477;48.806;9.154;2022-10-13T04:28:56;12.40;99.90
10848;DHT22;5477;48.806;9.154;2022-10-13T04:31:25;12.40;99.90
10848;DHT22;5477;48.806;9.154;2022-10-13T04:33:55;12.40;99.90
10848;DHT22;5477;48.806;9.154;2022-10-13T04:36:24;12.50;99.90
10848;DHT22;5477;48.806;9.154;2022-10-13T04:38:53;12.50;99.90
10848;DHT22;5477;48.806;9.154;2022-10-13T04:41:21;12.60;99.90
10848;DHT22;5477;48.806;9.154;2022-10-13T04:43:50;12.60;99.90
10848;DHT22;5477;48.806;9.154;2022-10-13T04:46:22;12.60;99.90
10848;DHT22;5477;48.806;9.154;2022-10-13T04:48:52;12.70;99.90
10848;DHT22;5477;48.806;9.154;2022-10-13T04:51:27;12.70;99.90
10848;DHT22;5477;48.806;9.154;2022-10-13T04:53:56;12.70;99.90
10848;DHT22;5477;48.806;9.154;2022-10-13T04:56:25;12.60;99.90
10848;DHT22;5477;48.806;9.154;2022-10-13T04:58:53;12.70;99.90
10848;DHT22;5477;48.806;9.154;2022-10-13T05:01:23;12.70;99.90
10848;DHT22;5477;48.806;9.154;2022-10-13T05:03:53;12.70;99.90
10848;DHT22;5477;48.806;9.154;2022-10-13T05:06:24;12.70;99.90
10848;DHT22;5477;48.806;9.154;2022-10-13T05:08:54;12.70;99.90
10848;DHT22;5477;48.806;9.154;2022-10-13T05:11:23;12.70;99.90
10848;DHT22;5477;48.806;9.154;2022-10-13T05:13:52;12.70;99.90
10848;DHT22;5477;48.806;9.154;2022-10-13T05:16:23;12.80;99.90
10848;DHT22;5477;48.806;9.154;2022-10-13T05:18:52;12.80;99.90
10848;DHT22;5477;48.806;9.154;2022-10-13T05:21:22;12.80;99.90
10848;DHT22;5477;48.806;9.154;2022-10-13T05:23:52;12.70;99.90
10848;DHT22;5477;48.806;9.154;2022-10-13T05:26:23;12.70;99.90
10848;DHT22;5477;48.806;9.154;2022-10-13T05:28:54;12.70;99.90
10848;DHT22;5477;48.806;9.154;2022-10-13T05:31:26;12.60;99.90
10848;DHT22;5477;48.806;9.154;2022-10-13T05:33:56;12.60;99.90
10848;DHT22;5477;48.806;9.154;2022-10-13T05:36:26;12.60;99.90
10848;DHT22;5477;48.806;9.154;2022-10-13T05:38:57;12.60;99.90
10848;DHT22;5477;48.806;9.154;2022-10-13T05:41:26;12.60;99.90
10848;DHT22;5477;48.806;9.154;2022-10-13T05:43:58;12.60;99.90
10848;DHT22;5477;48.806;9.154;2022-10-13T05:46:28;12.60;99.90
10848;DHT22;5477;48.806;9.154;2022-10-13T05:48:57;12.50;99.90
10848;DHT22;5477;48.806;9.154;2022-10-13T05:51:28;12.50;99.90
10848;DHT22;5477;48.806;9.154;2022-10-13T05:54:01;12.50;99.90
10848;DHT22;5477;48.806;9.154;2022-10-13T05:56:35;12.50;99.90
10848;DHT22;5477;48.806;9.154;2022-10-13T05:59:07;12.40;99.90
10848;DHT22;5477;48.806;9.154;2022-10-13T06:01:38;12.40;99.90
10848;DHT22;5477;48.806;9.154;2022-10-13T06:04:10;12.40;99.90
10848;DHT22;5477;48.806;9.154;2022-10-13T06:06:39;12.40;99.90
10848;DHT22;5477;48.806;9.154;2022-10-13T06:09:07;12.40;99.90
10848;DHT22;5477;48.806;9.154;2022-10-13T06:11:35;12.40;99.90
10848;DHT22;5477;48.806;9.154;2022-10-13T06:14:03;12.40;99.90
10848;DHT22;5477;48.806;9.154;2022-10-13T06:16:33;12.50;99.90
10848;DHT22;5477;48.806;9.154;2022-10-13T06:19:03;12.50;99.90
10848;DHT22;5477;48.806;9.154;2022-10-13T06:21:33;12.50;99.90
10848;DHT22;5477;48.806;9.154;2022-10-13T06:24:02;12.50;99.90
10848;DHT22;5477;48.806;9.154;2022-10-13T06:26:30;12.50;99.90
10848;DHT22;5477;48.806;9.154;2022-10-13T06:28:58;12.50;99.90
10848;DHT22;5477;48.806;9.154;2022-10-13T06:31:29;12.50;99.90
10848;DHT22;5477;48.806;9.154;2022-10-13T06:33:58;12.50;99.90
10848;DHT22;5477;48.806;9.154;2022-10-13T06:36:28;12.50;99.90
10848;DHT22;5477;48.806;9.154;2022-10-13T06:38:57;12.50;99.90
10848;DHT22;5477;48.806;9.154;2022-10-13T06:41:25;12.50;99.90
10848;DHT22;5477;48.806;9.154;2022-10-13T06:43:53;12.50;99.90
10848;DHT22;5477;48.806;9.154;2022-10-13T06:46:21;12.40;99.90
10848;DHT22;5477;48.806;9.154;2022-10-13T06:48:50;12.50;99.90
10848;DHT22;5477;48.806;9.154;2022-10-13T06:51:19;12.40;99.90
10848;DHT22;5477;48.806;9.154;2022-10-13T06:53:49;12.40;99.90
10848;DHT22;5477;48.806;9.154;2022-10-13T06:56:22;12.50;99.90
10848;DHT22;5477;48.806;9.154;2022-10-13T06:58:50;12.40;99.90
10848;DHT22;5477;48.806;9.154;2022-10-13T07:01:18;12.50;99.90
10848;DHT22;5477;48.806;9.154;2022-10-13T07:03:47;12.50;99.90
10848;DHT22;5477;48.806;9.154;2022-10-13T07:06:18;12.60;99.90
10848;DHT22;5477;48.806;9.154;2022-10-13T07:08:51;12.60;99.90
10848;DHT22;5477;48.806;9.154;2022-10-13T07:11:19;12.70;99.90
10848;DHT22;5477;48.806;9.154;2022-10-13T07:13:50;12.80;99.90
10848;DHT22;5477;48.806;9.154;2022-10-13T07:16:20;12.90;99.90
10848;DHT22;5477;48.806;9.154;2022-10-13T07:18:48;12.90;99.90
10848;DHT22;5477;48.806;9.154;2022-10-13T07:21:16;13.00;99.90
10848;DHT22;5477;48.806;9.154;2022-10-13T07:23:44;13.00;99.90
10848;DHT22;5477;48.806;9.154;2022-10-13T07:26:15;13.10;99.90
10848;DHT22;5477;48.806;9.154;2022-10-13T07:28:43;13.10;99.90
10848;DHT22;5477;48.806;9.154;2022-10-13T07:31:13;13.20;99.90
10848;DHT22;5477;48.806;9.154;2022-10-13T07:33:43;13.30;99.90
10848;DHT22;5477;48.806;9.154;2022-10-13T07:36:12;13.30;99.90
10848;DHT22;5477;48.806;9.154;2022-10-13T07:38:40;13.40;99.90
10848;DHT22;5477;48.806;9.154;2022-10-13T07:41:10;13.50;99.90
10848;DHT22;5477;48.806;9.154;2022-10-13T07:43:39;13.60;99.90
10848;DHT22;5477;48.806;9.154;2022-10-13T07:46:09;13.60;99.90
10848;DHT22;5477;48.806;9.154;2022-10-13T07:48:37;13.60;99.90
10848;DHT22;5477;48.806;9.154;2022-10-13T07:51:07;13.60;99.90
10848;DHT22;5477;48.806;9.154;2022-10-13T07:53:36;13.70;99.90
10848;DHT22;5477;48.806;9.154;2022-10-13T07:56:06;13.80;99.90
10848;DHT22;5477;48.806;9.154;2022-10-13T07:58:36;13.80;99.90
10848;DHT22;5477;48.806;9.154;2022-10-13T08:01:07;13.90;99.90
10848;DHT22;5477;48.806;9.154;2022-10-13T08:03:37;14.00;99.90
10848;DHT22;5477;48.806;9.154;2022-10-13T08:06:16;14.10;99.90
10848;DHT22;5477;48.806;9.154;2022-10-13T08:08:44;14.20;99.90
10848;DHT22;5477;48.806;9.154;2022-10-13T08:11:16;14.30;99.90
10848;DHT22;5477;48.806;9.154;2022-10-13T08:13:47;14.30;99.90
10848;DHT22;5477;48.806;9.154;2022-10-13T08:16:21;14.40;99.90
10848;DHT22;5477;48.806;9.154;2022-10-13T08:18:49;14.50;99.90
10848;DHT22;5477;48.806;9.154;2022-10-13T08:21:18;14.50;99.90
10848;DHT22;5477;48.806;9.154;2022-10-13T08:24:10;14.60;99.90
10848;DHT22;5477;48.806;9.154;2022-10-13T08:26:39;14.70;99.90
10848;DHT22;5477;48.806;9.154;2022-10-13T08:29:08;14.70;99.90
10848;DHT22;5477;48.806;9.154;2022-10-13T08:31:48;14.80;99.90
10848;DHT22;5477;48.806;9.154;2022-10-13T08:34:17;14.90;99.90
10848;DHT22;5477;48.806;9.154;2022-10-13T08:36:44;15.00;99.90
10848;DHT22;5477;48.806;9.154;2022-10-13T08:39:13;15.20;99.90
10848;DHT22;5477;48.806;9.154;2022-10-13T08:41:42;15.30;99.90
10848;DHT22;5477;48.806;9.154;2022-10-13T08:44:18;15.50;99.90
10848;DHT22;5477;48.806;9.154;2022-10-13T08:47:12;15.60;99.90
10848;DHT22;5477;48.806;9.154;2022-10-13T08:49:42;15.70;99.90
10848;DHT22;5477;48.806;9.154;2022-10-13T08:52:16;15.90;99.90
10848;DHT22;5477;48.806;9.154;2022-10-13T08:54:45;16.00;99.90
10848;DHT22;5477;48.806;9.154;2022-10-13T08:57:14;16.30;99.90
10848;DHT22;5477;48.806;9.154;2022-10-13T08:59:42;16.60;99.90
10848;DHT22;5477;48.806;9.154;2022-10-13T09:02:13;16.70;99.90
10848;DHT22;5477;48.806;9.154;2022-10-13T09:04:43;16.80;99.90
10848;DHT22;5477;48.806;9.154;2022-10-13T09:07:18;16.80;99.90
10848;DHT22;5477;48.806;9.154;2022-10-13T09:09:49;16.70;99.90
10848;DHT22;5477;48.806;9.154;2022-10-13T09:12:19;16.60;99.90
10848;DHT22;5477;48.806;9.154;2022-10-13T09:15:01;16.60;99.90
10848;DHT22;5477;48.806;9.154;2022-10-13T09:17:33;16.80;99.90
10848;DHT22;5477;48.806;9.154;2022-10-13T09:20:06;16.80;99.90
10848;DHT22;5477;48.806;9.154;2022-10-13T09:22:35;16.80;99.90
10848;DHT22;5477;48.806;9.154;2022-10-13T09:25:16;16.70;99.90
10848;DHT22;5477;48.806;9.154;2022-10-13T09:27:47;16.70;99.90
10848;DHT22;5477;48.806;9.154;2022-10-13T09:30:28;16.70;99.90
10848;DHT22;5477;48.806;9.154;2022-10-13T09:33:25;16.60;99.90
10848;DHT22;5477;48.806;9.154;2022-10-13T09:36:08;16.60;99.90
10848;DHT22;5477;48.806;9.154;2022-10-13T09:38:39;16.60;99.90
10848;DHT22;5477;48.806;9.154;2022-10-13T09:41:16;16.60;99.90
10848;DHT22;5477;48.806;9.154;2022-10-13T09:44:10;16.60;99.90
10848;DHT22;5477;48.806;9.154;2022-10-13T09:46:45;16.60;99.90
10848;DHT22;5477;48.806;9.154;2022-10-13T09:49:30;16.60;99.90
10848;DHT22;5477;48.806;9.154;2022-10-13T09:52:06;16.60;99.90
10848;DHT22;5477;48.806;9.154;2022-10-13T09:54:44;16.50;99.90
10848;DHT22;5477;48.806;9.154;2022-10-13T09:57:29;16.50;99.90
10848;DHT22;5477;48.806;9.154;2022-10-13T10:00:03;16.60;99.90
10848;DHT22;5477;48.806;9.154;2022-10-13T10:02:45;16.50;99.90
10848;DHT22;5477;48.806;9.154;2022-10-13T10:05:22;16.60;99.90
10848;DHT22;5477;48.806;9.154;2022-10-13T10:07:56;16.60;99.90
10848;DHT22;5477;48.806;9.154;2022-10-13T10:10:31;16.70;99.90
10848;DHT22;5477;48.806;9.154;2022-10-13T10:13:09;16.80;99.90
10848;DHT22;5477;48.806;9.154;2022-10-13T10:15:44;16.90;99.90
10848;DHT22;5477;48.806;9.154;2022-10-13T10:18:17;16.90;99.90
10848;DHT22;5477;48.806;9.154;2022-10-13T10:21:09;16.90;99.90
10848;DHT22;5477;48.806;9.154;2022-10-13T10:23:44;16.90;99.90
10848;DHT22;5477;48.806;9.154;2022-10-13T10:26:17;17.00;99.90
10848;DHT22;5477;48.806;9.154;2022-10-13T10:29:10;16.90;99.90
10848;DHT22;5477;48.806;9.154;2022-10-13T10:31:50;17.00;99.90
10848;DHT22;5477;48.806;9.154;2022-10-13T10:34:30;17.00;99.90
10848;DHT22;5477;48.806;9.154;2022-10-13T10:37:12;17.00;99.90
10848;DHT22;5477;48.806;9.154;2022-10-13T10:39:47;17.00;99.90
10848;DHT22;5477;48.806;9.154;2022-10-13T10:42:30;17.10;99.90
10848;DHT22;5477;48.806;9.154;2022-10-13T10:45:03;17.10;99.90
10848;DHT22;5477;48.806;9.154;2022-10-13T10:47:36;17.10;99.90
10848;DHT22;5477;48.806;9.154;2022-10-13T10:50:11;17.10;99.90
10848;DHT22;5477;48.806;9.154;2022-10-13T10:52:46;17.00;99.90
10848;DHT22;5477;48.806;9.154;2022-10-13T10:55:20;17.10;99.90
10848;DHT22;5477;48.806;9.154;2022-10-13T10:57:58;17.30;99.90
10848;DHT22;5477;48.806;9.154;2022-10-13T11:00:27;17.40;99.90
10848;DHT22;5477;48.806;9.154;2022-10-13T11:03:00;17.40;99.90
10848;DHT22;5477;48.806;9.154;2022-10-13T11:06:00;17.40;99.90
10848;DHT22;5477;48.806;9.154;2022-10-13T11:08:40;17.30;99.90
10848;DHT22;5477;48.806;9.154;2022-10-13T11:11:31;17.30;99.90
10848;DHT22;5477;48.806;9.154;2022-10-13T11:14:28;17.20;99.90
10848;DHT22;5477;48.806;9.154;2022-10-13T11:17:16;17.20;99.90
10848;DHT22;5477;48.806;9.154;2022-10-13T11:19:45;17.30;99.90
10848;DHT22;5477;48.806;9.154;2022-10-13T11:22:20;17.50;99.90
10848;DHT22;5477;48.806;9.154;2022-10-13T11:27:42;17.80;99.90
10848;DHT22;5477;48.806;9.154;2022-10-13T11:30:43;17.70;99.90
10848;DHT22;5477;48.806;9.154;2022-10-13T11:33:49;17.60;99.90
10848;DHT22;5477;48.806;9.154;2022-10-13T11:36:47;17.60;99.90
10848;DHT22;5477;48.806;9.154;2022-10-13T11:48:40;17.80;99.90
10848;DHT22;5477;48.806;9.154;2022-10-13T11:51:28;18.10;99.90
10848;DHT22;5477;48.806;9.154;2022-10-13T11:54:03;18.20;99.90
10848;DHT22;5477;48.806;9.154;2022-10-13T11:56:35;18.30;99.90
10848;DHT22;5477;48.806;9.154;2022-10-13T11:59:21;18.70;99.90
10848;DHT22;5477;48.806;9.154;2022-10-13T12:01:52;19.30;99.90
10848;DHT22;5477;48.806;9.154;2022-10-13T12:04:22;19.70;99.90
10848;DHT22;5477;48.806;9.154;2022-10-13T12:07:00;19.80;99.90
10848;DHT22;5477;48.806;9.154;2022-10-13T12:09:29;19.80;99.90
10848;DHT22;5477;48.806;9.154;2022-10-13T12:12:01;19.50;99.90
10848;DHT22;5477;48.806;9.154;2022-10-13T12:14:36;19.40;99.90
10848;DHT22;5477;48.806;9.154;2022-10-13T12:17:20;19.40;99.90
10848;DHT22;5477;48.806;9.154;2022-10-13T12:19:50;19.50;99.90
10848;DHT22;5477;48.806;9.154;2022-10-13T12:22:18;19.40;99.90
10848;DHT22;5477;48.806;9.154;2022-10-13T12:24:56;19.30;99.90
10848;DHT22;5477;48.806;9.154;2022-10-13T12:27:25;19.20;99.90
10848;DHT22;5477;48.806;9.154;2022-10-13T12:29:55;19.30;99.90
10848;DHT22;5477;48.806;9.154;2022-10-13T12:32:24;19.50;99.90
10848;DHT22;5477;48.806;9.154;2022-10-13T12:34:52;19.40;99.90
10848;DHT22;5477;48.806;9.154;2022-10-13T12:37:27;19.70;99.90
10848;DHT22;5477;48.806;9.154;2022-10-13T12:39:57;19.80;99.90
10848;DHT22;5477;48.806;9.154;2022-10-13T12:42:28;19.90;99.90
10848;DHT22;5477;48.806;9.154;2022-10-13T12:44:59;20.00;99.90
10848;DHT22;5477;48.806;9.154;2022-10-13T12:47:45;19.90;99.90
10848;DHT22;5477;48.806;9.154;2022-10-13T12:50:36;19.90;99.90
10848;DHT22;5477;48.806;9.154;2022-10-13T12:53:16;19.90;99.90
10848;DHT22;5477;48.806;9.154;2022-10-13T12:55:51;20.10;99.90
10848;DHT22;5477;48.806;9.154;2022-10-13T12:58:23;20.10;99.90
10848;DHT22;5477;48.806;9.154;2022-10-13T13:01:00;20.10;99.90
10848;DHT22;5477;48.806;9.154;2022-10-13T13:03:29;20.20;99.90
10848;DHT22;5477;48.806;9.154;2022-10-13T13:06:10;20.40;99.90
10848;DHT22;5477;48.806;9.154;2022-10-13T13:08:46;20.40;99.90
10848;DHT22;5477;48.806;9.154;2022-10-13T13:11:20;20.20;99.90
10848;DHT22;5477;48.806;9.154;2022-10-13T13:13:51;20.10;99.90
10848;DHT22;5477;48.806;9.154;2022-10-13T13:16:40;19.80;99.90
10848;DHT22;5477;48.806;9.154;2022-10-13T13:19:21;19.70;99.90
10848;DHT22;5477;48.806;9.154;2022-10-13T13:21:49;19.80;99.90
10848;DHT22;5477;48.806;9.154;2022-10-13T13:24:18;19.80;99.90
10848;DHT22;5477;48.806;9.154;2022-10-13T13:27:22;19.80;99.90
10848;DHT22;5477;48.806;9.154;2022-10-13T13:29:51;19.60;99.90
10848;DHT22;5477;48.806;9.154;2022-10-13T13:32:22;19.60;99.90
10848;DHT22;5477;48.806;9.154;2022-10-13T13:34:51;19.80;99.90
10848;DHT22;5477;48.806;9.154;2022-10-13T13:37:25;19.80;99.90
10848;DHT22;5477;48.806;9.154;2022-10-13T13:39:54;19.70;99.90
10848;DHT22;5477;48.806;9.154;2022-10-13T13:42:22;19.70;99.90
10848;DHT22;5477;48.806;9.154;2022-10-13T13:44:50;19.70;99.90
10848;DHT22;5477;48.806;9.154;2022-10-13T13:47:21;19.70;99.90
10848;DHT22;5477;48.806;9.154;2022-10-13T13:49:51;19.70;99.90
10848;DHT22;5477;48.806;9.154;2022-10-13T13:52:20;19.70;99.90
10848;DHT22;5477;48.806;9.154;2022-10-13T13:54:49;19.60;99.90
10848;DHT22;5477;48.806;9.154;2022-10-13T13:57:18;19.60;99.90
10848;DHT22;5477;48.806;9.154;2022-10-13T13:59:46;19.50;99.90
10848;DHT22;5477;48.806;9.154;2022-10-13T14:02:16;19.50;99.90
10848;DHT22;5477;48.806;9.154;2022-10-13T14:04:45;19.40;99.90
10848;DHT22;5477;48.806;9.154;2022-10-13T14:07:16;19.20;99.90
10848;DHT22;5477;48.806;9.154;2022-10-13T14:09:46;19.00;99.90
10848;DHT22;5477;48.806;9.154;2022-10-13T14:12:18;19.00;99.90
10848;DHT22;5477;48.806;9.154;2022-10-13T14:14:46;19.00;99.90
10848;DHT22;5477;48.806;9.154;2022-10-13T14:17:14;19.00;99.90
10848;DHT22;5477;48.806;9.154;2022-10-13T14:19:42;18.90;99.90
10848;DHT22;5477;48.806;9.154;2022-10-13T14:22:11;18.90;99.90
10848;DHT22;5477;48.806;9.154;2022-10-13T14:24:40;18.80;99.90
10848;DHT22;5477;48.806;9.154;2022-10-13T14:27:10;18.90;99.90
10848;DHT22;5477;48.806;9.154;2022-10-13T14:29:38;19.00;99.90
10848;DHT22;5477;48.806;9.154;2022-10-13T14:32:06;18.90;99.90
10848;DHT22;5477;48.806;9.154;2022-10-13T14:34:34;18.80;99.90
10848;DHT22;5477;48.806;9.154;2022-10-13T14:37:02;18.70;99.90
10848;DHT22;5477;48.806;9.154;2022-10-13T14:39:31;18.60;99.90
10848;DHT22;5477;48.806;9.154;2022-10-13T14:42:02;18.50;99.90
10848;DHT22;5477;48.806;9.154;2022-10-13T14:44:31;18.50;99.90
10848;DHT22;5477;48.806;9.154;2022-10-13T14:46:59;18.50;99.90
10848;DHT22;5477;48.806;9.154;2022-10-13T14:49:27;18.50;99.90
10848;DHT22;5477;48.806;9.154;2022-10-13T14:51:55;18.50;99.90
10848;DHT22;5477;48.806;9.154;2022-10-13T14:54:25;18.50;99.90
10848;DHT22;5477;48.806;9.154;2022-10-13T14:56:54;18.40;99.90
10848;DHT22;5477;48.806;9.154;2022-10-13T14:59:22;18.20;99.90
10848;DHT22;5477;48.806;9.154;2022-10-13T15:01:50;18.20;99.90
10848;DHT22;5477;48.806;9.154;2022-10-13T15:04:18;18.00;99.90
10848;DHT22;5477;48.806;9.154;2022-10-13T15:06:46;17.90;99.90
10848;DHT22;5477;48.806;9.154;2022-10-13T15:09:14;17.90;99.90
10848;DHT22;5477;48.806;9.154;2022-10-13T15:11:42;17.90;99.90
10848;DHT22;5477;48.806;9.154;2022-10-13T15:14:13;17.90;99.90
10848;DHT22;5477;48.806;9.154;2022-10-13T15:16:41;17.80;99.90
10848;DHT22;5477;48.806;9.154;2022-10-13T15:19:09;17.80;99.90
10848;DHT22;5477;48.806;9.154;2022-10-13T15:21:37;17.70;99.90
10848;DHT22;5477;48.806;9.154;2022-10-13T15:24:05;17.70;99.90
10848;DHT22;5477;48.806;9.154;2022-10-13T15:26:33;17.50;99.90
10848;DHT22;5477;48.806;9.154;2022-10-13T15:29:02;17.40;99.90
10848;DHT22;5477;48.806;9.154;2022-10-13T15:31:32;17.40;99.90
10848;DHT22;5477;48.806;9.154;2022-10-13T15:34:00;17.50;99.90
10848;DHT22;5477;48.806;9.154;2022-10-13T15:36:27;17.30;99.90
10848;DHT22;5477;48.806;9.154;2022-10-13T15:38:55;17.30;99.90
10848;DHT22;5477;48.806;9.154;2022-10-13T15:41:23;17.20;99.90
10848;DHT22;5477;48.806;9.154;2022-10-13T15:43:52;17.20;99.90
10848;DHT22;5477;48.806;9.154;2022-10-13T15:46:20;17.10;99.90
10848;DHT22;5477;48.806;9.154;2022-10-13T15:48:53;17.10;99.90
10848;DHT22;5477;48.806;9.154;2022-10-13T15:51:22;17.00;99.90
10848;DHT22;5477;48.806;9.154;2022-10-13T15:53:52;17.00;99.90
10848;DHT22;5477;48.806;9.154;2022-10-13T15:56:21;16.90;99.90
10848;DHT22;5477;48.806;9.154;2022-10-13T15:58:49;16.90;99.90
10848;DHT22;5477;48.806;9.154;2022-10-13T16:01:17;16.90;99.90
10848;DHT22;5477;48.806;9.154;2022-10-13T16:03:45;16.90;99.90
10848;DHT22;5477;48.806;9.154;2022-10-13T16:06:14;17.00;99.90
10848;DHT22;5477;48.806;9.154;2022-10-13T16:08:42;17.00;99.90
10848;DHT22;5477;48.806;9.154;2022-10-13T16:11:11;17.00;99.90
10848;DHT22;5477;48.806;9.154;2022-10-13T16:13:40;17.10;99.90
10848;DHT22;5477;48.806;9.154;2022-10-13T16:16:08;17.00;99.90
10848;DHT22;5477;48.806;9.154;2022-10-13T16:18:38;16.90;99.90
10848;DHT22;5477;48.806;9.154;2022-10-13T16:21:07;16.80;99.90
10848;DHT22;5477;48.806;9.154;2022-10-13T16:23:42;16.80;99.90
10848;DHT22;5477;48.806;9.154;2022-10-13T16:26:10;16.70;99.90
10848;DHT22;5477;48.806;9.154;2022-10-13T16:28:39;16.60;99.90